sensor_id;sensor_type;location;lat;lon;timestamp;temperature;humidity
33580;DHT22;19909;43.644;-79.438;2023-05-10T00:01:53;20.70;42.80
33580;DHT22;19909;43.644;-79.438;2023-05-10T00:04:20;20.70;42.80
33580;DHT22;19909;43.644;-79.438;2023-05-10T00:06:46;20.70;42.90
33580;DHT22;19909;43.644;-79.438;2023-05-10T00:09:12;20.70;42.90
33580;DHT22;19909;43.644;-79.438;2023-05-10T00:11:39;20.70;42.90
33580;DHT22;19909;43.644;-79.438;2023-05-10T00:14:05;20.70;42.90
33580;DHT22;19909;43.644;-79.438;2023-05-10T00:16:31;20.70;43.00
33580;DHT22;19909;43.644;-79.438;2023-05-10T00:18:57;20.70;43.00
33580;DHT22;19909;43.644;-79.438;2023-05-10T00:21:23;20.70;43.10
33580;DHT22;19909;43.644;-79.438;2023-05-10T00:23:49;20.70;43.30
33580;DHT22;19909;43.644;-79.438;2023-05-10T00:26:16;20.70;43.20
33580;DHT22;19909;43.644;-79.438;2023-05-10T00:28:42;20.70;42.90
33580;DHT22;19909;43.644;-79.438;2023-05-10T00:31:08;20.70;42.80
33580;DHT22;19909;43.644;-79.438;2023-05-10T00:33:34;20.70;42.80
33580;DHT22;19909;43.644;-79.438;2023-05-10T00:36:00;20.70;42.90
33580;DHT22;19909;43.644;-79.438;2023-05-10T00:38:26;20.70;42.90
33580;DHT22;19909;43.644;-79.438;2023-05-10T00:40:53;20.70;43.00
33580;DHT22;19909;43.644;-79.438;2023-05-10T00:43:19;20.70;43.10
33580;DHT22;19909;43.644;-79.438;2023-05-10T00:45:45;20.70;43.10
33580;DHT22;19909;43.644;-79.438;2023-05-10T00:48:11;20.70;43.10
33580;DHT22;19909;43.644;-79.438;2023-05-10T00:50:38;20.70;43.10
33580;DHT22;19909;43.644;-79.438;2023-05-10T00:53:05;20.70;43.20
33580;DHT22;19909;43.644;-79.438;2023-05-10T00:55:32;20.70;43.40
33580;DHT22;19909;43.644;-79.438;2023-05-10T00:57:58;20.70;43.20
33580;DHT22;19909;43.644;-79.438;2023-05-10T01:00:24;20.70;42.90
33580;DHT22;19909;43.644;-79.438;2023-05-10T01:02:55;20.70;42.90
33580;DHT22;19909;43.644;-79.438;2023-05-10T01:05:22;20.70;43.00
33580;DHT22;19909;43.644;-79.438;2023-05-10T01:07:48;20.70;43.50
33580;DHT22;19909;43.644;-79.438;2023-05-10T01:10:14;20.70;43.10
33580;DHT22;19909;43.644;-79.438;2023-05-10T01:12:43;20.70;43.20
33580;DHT22;19909;43.644;-79.438;2023-05-10T01:15:11;20.70;43.10
33580;DHT22;19909;43.644;-79.438;2023-05-10T01:17:39;20.70;43.20
33580;DHT22;19909;43.644;-79.438;2023-05-10T01:20:07;20.70;43.20
33580;DHT22;19909;43.644;-79.438;2023-05-10T01:31:47;20.70;43.10
33580;DHT22;19909;43.644;-79.438;2023-05-10T01:34:23;20.70;43.00
33580;DHT22;19909;43.644;-79.438;2023-05-10T01:39:46;20.70;43.20
33580;DHT22;19909;43.644;-79.438;2023-05-10T01:42:21;20.70;43.20
33580;DHT22;19909;43.644;-79.438;2023-05-10T01:45:11;20.70;43.30
33580;DHT22;19909;43.644;-79.438;2023-05-10T01:47:43;20.70;43.30
33580;DHT22;19909;43.644;-79.438;2023-05-10T01:50:29;20.70;43.40
33580;DHT22;19909;43.644;-79.438;2023-05-10T01:52:59;20.70;43.40
33580;DHT22;19909;43.644;-79.438;2023-05-10T01:55:32;20.70;43.60
33580;DHT22;19909;43.644;-79.438;2023-05-10T01:58:11;20.70;43.30
33580;DHT22;19909;43.644;-79.438;2023-05-10T02:00:40;20.70;43.10
33580;DHT22;19909;43.644;-79.438;2023-05-10T02:03:08;20.70;43.10
33580;DHT22;19909;43.644;-79.438;2023-05-10T02:05:37;20.70;43.10
33580;DHT22;19909;43.644;-79.438;2023-05-10T02:08:06;20.70;43.20
33580;DHT22;19909;43.644;-79.438;2023-05-10T02:10:34;20.70;43.20
33580;DHT22;19909;43.644;-79.438;2023-05-10T02:13:02;20.70;43.30
33580;DHT22;19909;43.644;-79.438;2023-05-10T02:15:29;20.70;43.50
33580;DHT22;19909;43.644;-79.438;2023-05-10T02:17:58;20.70;43.40
33580;DHT22;19909;43.644;-79.438;2023-05-10T02:20:26;20.70;43.40
33580;DHT22;19909;43.644;-79.438;2023-05-10T02:22:54;20.70;43.40
33580;DHT22;19909;43.644;-79.438;2023-05-10T02:25:23;20.60;43.60
33580;DHT22;19909;43.644;-79.438;2023-05-10T02:27:52;20.70;43.40
33580;DHT22;19909;43.644;-79.438;2023-05-10T02:30:20;20.70;43.10
33580;DHT22;19909;43.644;-79.438;2023-05-10T02:32:47;20.70;43.10
33580;DHT22;19909;43.644;-79.438;2023-05-10T02:35:14;20.70;43.20
33580;DHT22;19909;43.644;-79.438;2023-05-10T02:37:41;20.70;43.30
33580;DHT22;19909;43.644;-79.438;2023-05-10T02:40:09;20.70;43.20
33580;DHT22;19909;43.644;-79.438;2023-05-10T02:42:37;20.70;43.20
33580;DHT22;19909;43.644;-79.438;2023-05-10T02:45:17;20.70;43.30
33580;DHT22;19909;43.644;-79.438;2023-05-10T02:47:44;20.70;43.40
33580;DHT22;19909;43.644;-79.438;2023-05-10T02:50:10;20.70;43.40
33580;DHT22;19909;43.644;-79.438;2023-05-10T02:52:40;20.70;43.40
33580;DHT22;19909;43.644;-79.438;2023-05-10T02:55:11;20.70;43.60
33580;DHT22;19909;43.644;-79.438;2023-05-10T02:57:43;20.70;43.40
33580;DHT22;19909;43.644;-79.438;2023-05-10T03:00:12;20.70;43.20
33580;DHT22;19909;43.644;-79.438;2023-05-10T03:02:38;20.70;43.20
33580;DHT22;19909;43.644;-79.438;2023-05-10T03:05:04;20.70;43.20
33580;DHT22;19909;43.644;-79.438;2023-05-10T03:07:31;20.70;43.30
33580;DHT22;19909;43.644;-79.438;2023-05-10T03:09:59;20.70;43.20
33580;DHT22;19909;43.644;-79.438;2023-05-10T03:18:22;20.70;43.50
33580;DHT22;19909;43.644;-79.438;2023-05-10T03:20:51;20.70;43.50
33580;DHT22;19909;43.644;-79.438;2023-05-10T03:23:27;20.60;43.40
33580;DHT22;19909;43.644;-79.438;2023-05-10T03:25:55;20.70;43.80
33580;DHT22;19909;43.644;-79.438;2023-05-10T03:28:25;20.70;44.00
33580;DHT22;19909;43.644;-79.438;2023-05-10T03:30:56;20.70;43.20
33580;DHT22;19909;43.644;-79.438;2023-05-10T03:33:22;20.60;43.20
33580;DHT22;19909;43.644;-79.438;2023-05-10T03:35:48;20.70;43.20
33580;DHT22;19909;43.644;-79.438;2023-05-10T03:38:14;20.70;43.30
33580;DHT22;19909;43.644;-79.438;2023-05-10T03:40:40;20.70;43.30
33580;DHT22;19909;43.644;-79.438;2023-05-10T03:43:07;20.70;43.40
33580;DHT22;19909;43.644;-79.438;2023-05-10T03:45:33;20.60;43.40
33580;DHT22;19909;43.644;-79.438;2023-05-10T03:47:59;20.70;43.40
33580;DHT22;19909;43.644;-79.438;2023-05-10T03:50:25;20.60;43.40
33580;DHT22;19909;43.644;-79.438;2023-05-10T03:52:52;20.60;43.40
33580;DHT22;19909;43.644;-79.438;2023-05-10T03:55:18;20.60;43.70
33580;DHT22;19909;43.644;-79.438;2023-05-10T03:57:44;20.70;43.50
33580;DHT22;19909;43.644;-79.438;2023-05-10T04:00:10;20.60;43.10
33580;DHT22;19909;43.644;-79.438;2023-05-10T04:02:37;20.70;43.20
33580;DHT22;19909;43.644;-79.438;2023-05-10T04:05:03;20.70;43.10
33580;DHT22;19909;43.644;-79.438;2023-05-10T04:07:29;20.70;43.30
33580;DHT22;19909;43.644;-79.438;2023-05-10T04:09:55;20.60;43.20
33580;DHT22;19909;43.644;-79.438;2023-05-10T04:12:21;20.60;43.30
33580;DHT22;19909;43.644;-79.438;2023-05-10T04:14:47;20.60;43.40
33580;DHT22;19909;43.644;-79.438;2023-05-10T04:17:14;20.60;43.40
33580;DHT22;19909;43.644;-79.438;2023-05-10T04:19:40;20.60;43.40
33580;DHT22;19909;43.644;-79.438;2023-05-10T04:22:06;20.60;43.40
33580;DHT22;19909;43.644;-79.438;2023-05-10T04:24:32;20.60;43.50
33580;DHT22;19909;43.644;-79.438;2023-05-10T04:26:58;20.70;43.60
33580;DHT22;19909;43.644;-79.438;2023-05-10T04:29:24;20.80;43.10
33580;DHT22;19909;43.644;-79.438;2023-05-10T04:31:50;20.90;43.00
33580;DHT22;19909;43.644;-79.438;2023-05-10T04:34:16;21.00;42.90
33580;DHT22;19909;43.644;-79.438;2023-05-10T04:36:43;21.00;42.90
33580;DHT22;19909;43.644;-79.438;2023-05-10T04:39:09;21.10;42.70
33580;DHT22;19909;43.644;-79.438;2023-05-10T04:41:35;21.10;42.80
33580;DHT22;19909;43.644;-79.438;2023-05-10T04:44:03;21.00;42.80
33580;DHT22;19909;43.644;-79.438;2023-05-10T04:46:29;21.00;42.70
33580;DHT22;19909;43.644;-79.438;2023-05-10T04:48:55;21.10;42.90
33580;DHT22;19909;43.644;-79.438;2023-05-10T04:51:21;21.10;42.80
33580;DHT22;19909;43.644;-79.438;2023-05-10T04:53:47;21.10;42.90
33580;DHT22;19909;43.644;-79.438;2023-05-10T04:56:14;21.00;42.90
33580;DHT22;19909;43.644;-79.438;2023-05-10T04:58:40;21.00;42.80
33580;DHT22;19909;43.644;-79.438;2023-05-10T05:01:07;21.00;43.00
33580;DHT22;19909;43.644;-79.438;2023-05-10T05:03:34;21.00;43.00
33580;DHT22;19909;43.644;-79.438;2023-05-10T05:06:00;21.00;43.00
33580;DHT22;19909;43.644;-79.438;2023-05-10T05:08:26;21.00;43.30
33580;DHT22;19909;43.644;-79.438;2023-05-10T05:10:52;21.00;43.20
33580;DHT22;19909;43.644;-79.438;2023-05-10T05:13:18;21.00;43.10
33580;DHT22;19909;43.644;-79.438;2023-05-10T05:15:44;20.90;43.00
33580;DHT22;19909;43.644;-79.438;2023-05-10T05:18:10;20.90;43.20
33580;DHT22;19909;43.644;-79.438;2023-05-10T05:20:37;20.90;43.10
33580;DHT22;19909;43.644;-79.438;2023-05-10T05:23:03;20.90;43.00
33580;DHT22;19909;43.644;-79.438;2023-05-10T05:25:29;20.90;43.20
33580;DHT22;19909;43.644;-79.438;2023-05-10T05:27:55;20.90;42.90
33580;DHT22;19909;43.644;-79.438;2023-05-10T05:30:21;20.90;42.70
33580;DHT22;19909;43.644;-79.438;2023-05-10T05:32:47;20.90;42.70
33580;DHT22;19909;43.644;-79.438;2023-05-10T05:35:13;20.90;42.70
33580;DHT22;19909;43.644;-79.438;2023-05-10T05:37:40;20.90;42.80
33580;DHT22;19909;43.644;-79.438;2023-05-10T05:40:06;20.90;42.90
33580;DHT22;19909;43.644;-79.438;2023-05-10T05:42:33;20.90;43.10
33580;DHT22;19909;43.644;-79.438;2023-05-10T05:44:59;20.90;43.10
33580;DHT22;19909;43.644;-79.438;2023-05-10T05:47:25;20.90;43.20
33580;DHT22;19909;43.644;-79.438;2023-05-10T05:49:51;20.90;43.30
33580;DHT22;19909;43.644;-79.438;2023-05-10T05:52:17;21.00;43.00
33580;DHT22;19909;43.644;-79.438;2023-05-10T05:54:43;21.10;42.80
33580;DHT22;19909;43.644;-79.438;2023-05-10T05:57:09;21.10;42.80
33580;DHT22;19909;43.644;-79.438;2023-05-10T05:59:36;21.20;42.80
33580;DHT22;19909;43.644;-79.438;2023-05-10T06:02:02;21.20;42.60
33580;DHT22;19909;43.644;-79.438;2023-05-10T06:04:28;21.20;42.60
33580;DHT22;19909;43.644;-79.438;2023-05-10T06:06:54;21.20;42.70
33580;DHT22;19909;43.644;-79.438;2023-05-10T06:09:20;21.30;42.50
33580;DHT22;19909;43.644;-79.438;2023-05-10T06:11:46;21.20;42.60
33580;DHT22;19909;43.644;-79.438;2023-05-10T06:14:13;21.20;42.60
33580;DHT22;19909;43.644;-79.438;2023-05-10T06:16:39;21.20;42.60
33580;DHT22;19909;43.644;-79.438;2023-05-10T06:19:05;21.20;42.60
33580;DHT22;19909;43.644;-79.438;2023-05-10T06:21:31;21.20;42.60
33580;DHT22;19909;43.644;-79.438;2023-05-10T06:23:57;21.20;42.60
33580;DHT22;19909;43.644;-79.438;2023-05-10T06:26:23;21.10;42.60
33580;DHT22;19909;43.644;-79.438;2023-05-10T06:28:49;21.20;42.40
33580;DHT22;19909;43.644;-79.438;2023-05-10T06:31:15;21.20;42.40
33580;DHT22;19909;43.644;-79.438;2023-05-10T06:33:42;21.10;42.30
33580;DHT22;19909;43.644;-79.438;2023-05-10T06:36:08;21.10;42.50
33580;DHT22;19909;43.644;-79.438;2023-05-10T06:38:34;21.10;42.50
33580;DHT22;19909;43.644;-79.438;2023-05-10T06:41:00;21.10;42.50
33580;DHT22;19909;43.644;-79.438;2023-05-10T06:43:27;21.10;42.80
33580;DHT22;19909;43.644;-79.438;2023-05-10T06:45:54;21.10;42.60
33580;DHT22;19909;43.644;-79.438;2023-05-10T06:48:20;21.10;42.70
33580;DHT22;19909;43.644;-79.438;2023-05-10T06:50:46;21.00;42.60
33580;DHT22;19909;43.644;-79.438;2023-05-10T06:53:12;21.00;42.60
33580;DHT22;19909;43.644;-79.438;2023-05-10T06:55:39;21.00;43.00
33580;DHT22;19909;43.644;-79.438;2023-05-10T06:58:05;21.00;42.70
33580;DHT22;19909;43.644;-79.438;2023-05-10T07:00:31;21.00;42.40
33580;DHT22;19909;43.644;-79.438;2023-05-10T07:02:58;21.00;42.50
33580;DHT22;19909;43.644;-79.438;2023-05-10T07:05:24;21.00;42.60
33580;DHT22;19909;43.644;-79.438;2023-05-10T07:07:50;21.00;42.70
33580;DHT22;19909;43.644;-79.438;2023-05-10T07:10:17;21.00;42.80
33580;DHT22;19909;43.644;-79.438;2023-05-10T07:12:43;20.90;42.70
33580;DHT22;19909;43.644;-79.438;2023-05-10T07:15:09;20.90;42.90
33580;DHT22;19909;43.644;-79.438;2023-05-10T07:17:36;21.00;43.00
33580;DHT22;19909;43.644;-79.438;2023-05-10T07:20:02;21.10;42.70
33580;DHT22;19909;43.644;-79.438;2023-05-10T07:22:29;21.20;42.40
33580;DHT22;19909;43.644;-79.438;2023-05-10T07:24:55;21.30;42.40
33580;DHT22;19909;43.644;-79.438;2023-05-10T07:27:21;21.40;42.50
33580;DHT22;19909;43.644;-79.438;2023-05-10T07:29:47;21.40;42.20
33580;DHT22;19909;43.644;-79.438;2023-05-10T07:32:14;21.40;42.20
33580;DHT22;19909;43.644;-79.438;2023-05-10T07:34:40;21.50;42.40
33580;DHT22;19909;43.644;-79.438;2023-05-10T07:37:06;21.40;42.20
33580;DHT22;19909;43.644;-79.438;2023-05-10T07:39:33;21.40;42.10
33580;DHT22;19909;43.644;-79.438;2023-05-10T07:41:59;21.40;42.20
33580;DHT22;19909;43.644;-79.438;2023-05-10T07:44:25;21.40;42.20
33580;DHT22;19909;43.644;-79.438;2023-05-10T07:46:51;21.30;42.30
33580;DHT22;19909;43.644;-79.438;2023-05-10T07:49:17;21.30;42.40
33580;DHT22;19909;43.644;-79.438;2023-05-10T07:51:44;21.30;42.40
33580;DHT22;19909;43.644;-79.438;2023-05-10T07:54:10;21.30;42.40
33580;DHT22;19909;43.644;-79.438;2023-05-10T07:56:36;21.30;42.50
33580;DHT22;19909;43.644;-79.438;2023-05-10T07:59:03;21.30;42.50
33580;DHT22;19909;43.644;-79.438;2023-05-10T08:01:31;21.20;42.60
33580;DHT22;19909;43.644;-79.438;2023-05-10T08:04:00;21.20;42.60
33580;DHT22;19909;43.644;-79.438;2023-05-10T08:06:27;21.20;42.60
33580;DHT22;19909;43.644;-79.438;2023-05-10T08:08:56;21.20;42.80
33580;DHT22;19909;43.644;-79.438;2023-05-10T08:11:22;21.20;42.70
33580;DHT22;19909;43.644;-79.438;2023-05-10T08:13:49;21.20;42.70
33580;DHT22;19909;43.644;-79.438;2023-05-10T08:16:17;21.10;42.80
33580;DHT22;19909;43.644;-79.438;2023-05-10T08:18:44;21.10;42.70
33580;DHT22;19909;43.644;-79.438;2023-05-10T08:21:14;21.10;42.70
33580;DHT22;19909;43.644;-79.438;2023-05-10T08:23:40;21.10;42.70
33580;DHT22;19909;43.644;-79.438;2023-05-10T08:26:06;21.10;42.90
33580;DHT22;19909;43.644;-79.438;2023-05-10T08:28:32;21.10;42.60
33580;DHT22;19909;43.644;-79.438;2023-05-10T08:30:59;21.10;42.50
33580;DHT22;19909;43.644;-79.438;2023-05-10T08:33:25;21.00;42.50
33580;DHT22;19909;43.644;-79.438;2023-05-10T08:35:51;21.10;42.60
33580;DHT22;19909;43.644;-79.438;2023-05-10T08:38:18;21.00;42.60
33580;DHT22;19909;43.644;-79.438;2023-05-10T08:40:44;21.00;42.70
33580;DHT22;19909;43.644;-79.438;2023-05-10T08:43:12;21.00;42.70
33580;DHT22;19909;43.644;-79.438;2023-05-10T08:45:43;21.10;43.40
33580;DHT22;19909;43.644;-79.438;2023-05-10T08:48:11;21.00;42.90
33580;DHT22;19909;43.644;-79.438;2023-05-10T08:50:39;20.90;42.80
33580;DHT22;19909;43.644;-79.438;2023-05-10T08:53:15;20.90;42.90
33580;DHT22;19909;43.644;-79.438;2023-05-10T08:55:42;20.90;43.10
33580;DHT22;19909;43.644;-79.438;2023-05-10T08:58:09;20.90;42.90
33580;DHT22;19909;43.644;-79.438;2023-05-10T09:00:36;20.90;42.60
33580;DHT22;19909;43.644;-79.438;2023-05-10T09:03:04;20.90;42.80
33580;DHT22;19909;43.644;-79.438;2023-05-10T09:05:31;21.00;42.80
33580;DHT22;19909;43.644;-79.438;2023-05-10T09:07:57;21.20;42.50
33580;DHT22;19909;43.644;-79.438;2023-05-10T09:10:26;21.30;42.20
33580;DHT22;19909;43.644;-79.438;2023-05-10T09:12:54;21.40;42.30
33580;DHT22;19909;43.644;-79.438;2023-05-10T09:15:21;21.50;42.20
33580;DHT22;19909;43.644;-79.438;2023-05-10T09:17:49;21.50;42.00
33580;DHT22;19909;43.644;-79.438;2023-05-10T09:20:15;21.50;42.00
33580;DHT22;19909;43.644;-79.438;2023-05-10T09:22:43;21.50;42.40
33580;DHT22;19909;43.644;-79.438;2023-05-10T09:25:12;21.50;42.10
33580;DHT22;19909;43.644;-79.438;2023-05-10T09:27:40;21.50;42.00
33580;DHT22;19909;43.644;-79.438;2023-05-10T09:30:07;21.50;42.00
33580;DHT22;19909;43.644;-79.438;2023-05-10T09:32:41;21.40;42.00
33580;DHT22;19909;43.644;-79.438;2023-05-10T09:35:11;21.40;42.10
33580;DHT22;19909;43.644;-79.438;2023-05-10T09:37:48;21.40;42.10
33580;DHT22;19909;43.644;-79.438;2023-05-10T09:40:22;21.40;42.10
33580;DHT22;19909;43.644;-79.438;2023-05-10T09:42:59;21.30;42.20
33580;DHT22;19909;43.644;-79.438;2023-05-10T09:45:30;21.30;42.30
33580;DHT22;19909;43.644;-79.438;2023-05-10T09:47:57;21.30;42.30
33580;DHT22;19909;43.644;-79.438;2023-05-10T09:50:23;21.30;42.30
33580;DHT22;19909;43.644;-79.438;2023-05-10T09:52:50;21.30;42.60
33580;DHT22;19909;43.644;-79.438;2023-05-10T09:55:19;21.30;42.50
33580;DHT22;19909;43.644;-79.438;2023-05-10T09:57:46;21.30;42.50
33580;DHT22;19909;43.644;-79.438;2023-05-10T10:00:18;21.20;42.50
33580;DHT22;19909;43.644;-79.438;2023-05-10T10:02:53;21.30;42.60
33580;DHT22;19909;43.644;-79.438;2023-05-10T10:05:20;21.40;42.30
33580;DHT22;19909;43.644;-79.438;2023-05-10T10:07:46;21.50;42.00
33580;DHT22;19909;43.644;-79.438;2023-05-10T10:10:14;21.50;42.10
33580;DHT22;19909;43.644;-79.438;2023-05-10T10:12:41;21.60;42.10
33580;DHT22;19909;43.644;-79.438;2023-05-10T10:15:08;21.60;41.90
33580;DHT22;19909;43.644;-79.438;2023-05-10T10:17:36;21.60;42.10
33580;DHT22;19909;43.644;-79.438;2023-05-10T10:20:04;21.60;41.80
33580;DHT22;19909;43.644;-79.438;2023-05-10T10:22:30;21.60;41.90
33580;DHT22;19909;43.644;-79.438;2023-05-10T10:24:57;21.60;41.90
33580;DHT22;19909;43.644;-79.438;2023-05-10T10:33:13;21.50;42.00
33580;DHT22;19909;43.644;-79.438;2023-05-10T10:35:45;21.50;42.10
33580;DHT22;19909;43.644;-79.438;2023-05-10T10:38:13;21.40;42.10
33580;DHT22;19909;43.644;-79.438;2023-05-10T10:40:39;21.40;42.10
33580;DHT22;19909;43.644;-79.438;2023-05-10T10:43:25;21.40;42.30
33580;DHT22;19909;43.644;-79.438;2023-05-10T10:46:15;21.40;42.20
33580;DHT22;19909;43.644;-79.438;2023-05-10T10:48:51;21.40;42.30
33580;DHT22;19909;43.644;-79.438;2023-05-10T10:51:39;21.30;42.30
33580;DHT22;19909;43.644;-79.438;2023-05-10T10:54:12;21.30;42.40
33580;DHT22;19909;43.644;-79.438;2023-05-10T10:56:38;21.30;42.40
33580;DHT22;19909;43.644;-79.438;2023-05-10T10:59:04;21.40;42.50
33580;DHT22;19909;43.644;-79.438;2023-05-10T11:01:34;21.40;42.10
33580;DHT22;19909;43.644;-79.438;2023-05-10T11:06:35;21.60;41.80
33580;DHT22;19909;43.644;-79.438;2023-05-10T11:09:12;21.70;41.80
33580;DHT22;19909;43.644;-79.438;2023-05-10T11:11:54;21.80;41.70
33580;DHT22;19909;43.644;-79.438;2023-05-10T11:14:24;21.70;41.60
33580;DHT22;19909;43.644;-79.438;2023-05-10T11:16:51;21.70;41.60
33580;DHT22;19909;43.644;-79.438;2023-05-10T11:19:19;21.70;41.60
33580;DHT22;19909;43.644;-79.438;2023-05-10T11:24:19;21.70;41.70
33580;DHT22;19909;43.644;-79.438;2023-05-10T11:26:45;21.60;41.80
33580;DHT22;19909;43.644;-79.438;2023-05-10T11:29:15;21.60;41.90
33580;DHT22;19909;43.644;-79.438;2023-05-10T11:31:45;21.60;42.00
33580;DHT22;19909;43.644;-79.438;2023-05-10T11:34:33;21.50;42.00
33580;DHT22;19909;43.644;-79.438;2023-05-10T11:37:01;21.60;42.10
33580;DHT22;19909;43.644;-79.438;2023-05-10T11:39:31;21.50;42.10
33580;DHT22;19909;43.644;-79.438;2023-05-10T11:41:59;21.50;42.10
33580;DHT22;19909;43.644;-79.438;2023-05-10T11:44:32;21.50;42.10
33580;DHT22;19909;43.644;-79.438;2023-05-10T11:46:59;21.40;42.20
33580;DHT22;19909;43.644;-79.438;2023-05-10T11:49:26;21.40;42.30
33580;DHT22;19909;43.644;-79.438;2023-05-10T11:51:52;21.40;42.30
33580;DHT22;19909;43.644;-79.438;2023-05-10T11:54:18;21.40;42.30
33580;DHT22;19909;43.644;-79.438;2023-05-10T11:56:44;21.40;42.30
33580;DHT22;19909;43.644;-79.438;2023-05-10T11:59:13;21.40;42.40
33580;DHT22;19909;43.644;-79.438;2023-05-10T12:01:39;21.30;42.30
33580;DHT22;19909;43.644;-79.438;2023-05-10T12:04:05;21.30;42.50
33580;DHT22;19909;43.644;-79.438;2023-05-10T12:06:35;21.30;42.30
33580;DHT22;19909;43.644;-79.438;2023-05-10T12:09:06;21.30;42.50
33580;DHT22;19909;43.644;-79.438;2023-05-10T12:11:37;21.40;42.40
33580;DHT22;19909;43.644;-79.438;2023-05-10T12:14:05;21.30;42.40
33580;DHT22;19909;43.644;-79.438;2023-05-10T12:16:31;21.30;42.50
33580;DHT22;19909;43.644;-79.438;2023-05-10T12:18:59;21.40;42.80
33580;DHT22;19909;43.644;-79.438;2023-05-10T12:21:27;21.50;42.10
33580;DHT22;19909;43.644;-79.438;2023-05-10T12:23:58;21.60;42.10
33580;DHT22;19909;43.644;-79.438;2023-05-10T12:26:26;21.70;42.00
33580;DHT22;19909;43.644;-79.438;2023-05-10T12:28:54;21.70;41.90
33580;DHT22;19909;43.644;-79.438;2023-05-10T12:31:20;21.70;41.60
33580;DHT22;19909;43.644;-79.438;2023-05-10T12:33:46;21.70;41.70
33580;DHT22;19909;43.644;-79.438;2023-05-10T12:36:16;21.70;41.90
33580;DHT22;19909;43.644;-79.438;2023-05-10T12:38:46;21.70;41.80
33580;DHT22;19909;43.644;-79.438;2023-05-10T12:41:17;21.70;41.80
33580;DHT22;19909;43.644;-79.438;2023-05-10T12:43:44;21.70;41.90
33580;DHT22;19909;43.644;-79.438;2023-05-10T12:46:13;21.70;42.00
33580;DHT22;19909;43.644;-79.438;2023-05-10T12:48:40;21.60;42.00
33580;DHT22;19909;43.644;-79.438;2023-05-10T12:51:07;21.60;42.00
33580;DHT22;19909;43.644;-79.438;2023-05-10T12:53:39;21.60;42.20
33580;DHT22;19909;43.644;-79.438;2023-05-10T12:56:05;21.60;42.30
33580;DHT22;19909;43.644;-79.438;2023-05-10T12:58:32;21.60;42.30
33580;DHT22;19909;43.644;-79.438;2023-05-10T13:01:01;21.60;42.40
33580;DHT22;19909;43.644;-79.438;2023-05-10T13:03:27;21.60;42.50
33580;DHT22;19909;43.644;-79.438;2023-05-10T13:05:53;21.50;42.40
33580;DHT22;19909;43.644;-79.438;2023-05-10T13:08:19;21.50;42.50
33580;DHT22;19909;43.644;-79.438;2023-05-10T13:10:45;21.50;42.50
33580;DHT22;19909;43.644;-79.438;2023-05-10T13:13:11;21.50;42.60
33580;DHT22;19909;43.644;-79.438;2023-05-10T13:15:38;21.50;42.60
33580;DHT22;19909;43.644;-79.438;2023-05-10T13:18:04;21.40;42.50
33580;DHT22;19909;43.644;-79.438;2023-05-10T13:20:30;21.40;42.60
33580;DHT22;19909;43.644;-79.438;2023-05-10T13:22:56;21.40;42.60
33580;DHT22;19909;43.644;-79.438;2023-05-10T13:25:22;21.40;42.80
33580;DHT22;19909;43.644;-79.438;2023-05-10T13:27:49;21.40;42.60
33580;DHT22;19909;43.644;-79.438;2023-05-10T13:30:15;21.40;42.20
33580;DHT22;19909;43.644;-79.438;2023-05-10T13:32:41;21.40;42.10
33580;DHT22;19909;43.644;-79.438;2023-05-10T13:35:08;21.40;42.30
33580;DHT22;19909;43.644;-79.438;2023-05-10T13:37:34;21.40;42.30
33580;DHT22;19909;43.644;-79.438;2023-05-10T13:40:03;21.40;42.30
33580;DHT22;19909;43.644;-79.438;2023-05-10T13:42:30;21.40;42.40
33580;DHT22;19909;43.644;-79.438;2023-05-10T13:44:57;21.30;42.60
33580;DHT22;19909;43.644;-79.438;2023-05-10T13:47:23;21.30;42.50
33580;DHT22;19909;43.644;-79.438;2023-05-10T13:49:49;21.30;42.50
33580;DHT22;19909;43.644;-79.438;2023-05-10T13:52:16;21.30;42.50
33580;DHT22;19909;43.644;-79.438;2023-05-10T13:54:42;21.30;43.00
33580;DHT22;19909;43.644;-79.438;2023-05-10T13:57:08;21.30;42.90
33580;DHT22;19909;43.644;-79.438;2023-05-10T13:59:34;21.30;42.50
33580;DHT22;19909;43.644;-79.438;2023-05-10T14:02:01;21.30;42.50
33580;DHT22;19909;43.644;-79.438;2023-05-10T14:04:30;21.30;42.50
33580;DHT22;19909;43.644;-79.438;2023-05-10T14:06:57;21.30;42.60
33580;DHT22;19909;43.644;-79.438;2023-05-10T14:09:23;21.30;42.50
33580;DHT22;19909;43.644;-79.438;2023-05-10T14:11:49;21.30;42.60
33580;DHT22;19909;43.644;-79.438;2023-05-10T14:14:15;21.20;42.60
33580;DHT22;19909;43.644;-79.438;2023-05-10T14:16:43;21.20;42.70
33580;DHT22;19909;43.644;-79.438;2023-05-10T14:19:10;21.20;42.70
33580;DHT22;19909;43.644;-79.438;2023-05-10T14:21:37;21.20;42.70
33580;DHT22;19909;43.644;-79.438;2023-05-10T14:24:04;21.20;43.20
33580;DHT22;19909;43.644;-79.438;2023-05-10T14:26:30;21.20;43.10
33580;DHT22;19909;43.644;-79.438;2023-05-10T14:28:56;21.20;42.80
33580;DHT22;19909;43.644;-79.438;2023-05-10T14:31:23;21.20;42.60
33580;DHT22;19909;43.644;-79.438;2023-05-10T14:33:50;21.20;42.60
33580;DHT22;19909;43.644;-79.438;2023-05-10T14:36:17;21.20;42.90
33580;DHT22;19909;43.644;-79.438;2023-05-10T14:38:44;21.20;42.90
33580;DHT22;19909;43.644;-79.438;2023-05-10T14:41:10;21.20;42.80
33580;DHT22;19909;43.644;-79.438;2023-05-10T14:43:40;21.20;42.80
33580;DHT22;19909;43.644;-79.438;2023-05-10T14:46:06;21.20;42.90
33580;DHT22;19909;43.644;-79.438;2023-05-10T14:48:33;21.20;43.20
33580;DHT22;19909;43.644;-79.438;2023-05-10T14:50:59;21.10;43.10
33580;DHT22;19909;43.644;-79.438;2023-05-10T14:53:25;21.20;43.20
33580;DHT22;19909;43.644;-79.438;2023-05-10T14:55:51;21.20;43.40
33580;DHT22;19909;43.644;-79.438;2023-05-10T14:58:17;21.10;43.00
33580;DHT22;19909;43.644;-79.438;2023-05-10T15:00:44;21.20;43.00
33580;DHT22;19909;43.644;-79.438;2023-05-10T15:03:10;21.10;43.00
33580;DHT22;19909;43.644;-79.438;2023-05-10T15:05:36;21.10;43.20
33580;DHT22;19909;43.644;-79.438;2023-05-10T15:08:03;21.10;43.30
33580;DHT22;19909;43.644;-79.438;2023-05-10T15:10:30;21.10;43.00
33580;DHT22;19909;43.644;-79.438;2023-05-10T15:12:58;21.10;43.10
33580;DHT22;19909;43.644;-79.438;2023-05-10T15:15:24;21.10;43.20
33580;DHT22;19909;43.644;-79.438;2023-05-10T15:17:51;21.10;43.20
33580;DHT22;19909;43.644;-79.438;2023-05-10T15:20:17;21.10;43.30
33580;DHT22;19909;43.644;-79.438;2023-05-10T15:22:43;21.10;43.20
33580;DHT22;19909;43.644;-79.438;2023-05-10T15:25:09;21.10;43.70
33580;DHT22;19909;43.644;-79.438;2023-05-10T15:27:35;21.10;43.40
33580;DHT22;19909;43.644;-79.438;2023-05-10T15:30:02;21.10;43.10
33580;DHT22;19909;43.644;-79.438;2023-05-10T15:32:28;21.10;43.00
33580;DHT22;19909;43.644;-79.438;2023-05-10T15:34:57;21.10;43.10